sensor_id;sensor_type;location;lat;lon;timestamp;P1;durP1;ratioP1;P2;durP2;ratioP2
50651;SDS011;61429;52.086;5.240;2022-12-18T00:01:00;70.8;;;40.0;;
50651;SDS011;61429;52.086;5.240;2022-12-18T05:38:25;27.8;;;20.11;;
50651;SDS011;61429;52.086;5.240;2022-12-18T06:25:20;23.1;;;17.91;;
50651;SDS011;61429;52.086;5.240;2022-12-18T06:28:33;23.2;;;17.5;;
50651;SDS011;61429;52.086;5.240;2022-12-18T06:30:09;23.5;;;18.0;;
50651;SDS011;61429;52.086;5.240;2022-12-18T06:31:46;25.3;;;18.41;;
50651;SDS011;61429;52.086;5.240;2022-12-18T06:35:03;23.1;;;17.7;;
50651;SDS011;61429;52.086;5.240;2022-12-18T06:36:40;22.8;;;17.2;;
50651;SDS011;61429;52.086;5.240;2022-12-18T06:38:16;23.5;;;17.91;;
50651;SDS011;61429;52.086;5.240;2022-12-18T06:41:28;24.2;;;17.2;;
50651;SDS011;61429;52.086;5.240;2022-12-18T06:43:04;21.4;;;16.7;;
50651;SDS011;61429;52.086;5.240;2022-12-18T06:44:42;21.5;;;17.5;;
50651;SDS011;61429;52.086;5.240;2022-12-18T06:46:18;21.5;;;17.5;;
50651;SDS011;61429;52.086;5.240;2022-12-18T06:49:31;23.1;;;18.0;;
50651;SDS011;61429;52.086;5.240;2022-12-18T06:51:07;22.8;;;17.3;;
50651;SDS011;61429;52.086;5.240;2022-12-18T06:52:44;21.3;;;16.61;;
50651;SDS011;61429;52.086;5.240;2022-12-18T06:55:59;24.2;;;17.61;;
50651;SDS011;61429;52.086;5.240;2022-12-18T06:57:36;25.1;;;17.5;;
50651;SDS011;61429;52.086;5.240;2022-12-18T06:59:13;22.2;;;17.3;;
50651;SDS011;61429;52.086;5.240;2022-12-18T07:00:50;23.3;;;17.61;;
50651;SDS011;61429;52.086;5.240;2022-12-18T07:04:03;22.1;;;16.9;;
50651;SDS011;61429;52.086;5.240;2022-12-18T07:05:39;22.7;;;17.5;;
50651;SDS011;61429;52.086;5.240;2022-12-18T07:07:16;22.2;;;16.61;;
50651;SDS011;61429;52.086;5.240;2022-12-18T07:10:31;20.5;;;16.7;;
50651;SDS011;61429;52.086;5.240;2022-12-18T07:12:07;21.9;;;16.8;;
50651;SDS011;61429;52.086;5.240;2022-12-18T07:13:43;19.91;;;16.4;;
50651;SDS011;61429;52.086;5.240;2022-12-18T07:16:56;20.9;;;16.7;;
50651;SDS011;61429;52.086;5.240;2022-12-18T07:18:33;22.3;;;16.61;;
50651;SDS011;61429;52.086;5.240;2022-12-18T07:20:09;23.8;;;17.0;;
50651;SDS011;61429;52.086;5.240;2022-12-18T07:21:46;21.1;;;16.5;;
50651;SDS011;61429;52.086;5.240;2022-12-18T07:24:58;20.8;;;15.8;;
50651;SDS011;61429;52.086;5.240;2022-12-18T07:26:34;20.2;;;16.4;;
50651;SDS011;61429;52.086;5.240;2022-12-18T07:28:11;19.8;;;16.11;;
50651;SDS011;61429;52.086;5.240;2022-12-18T07:31:23;21.0;;;16.4;;
50651;SDS011;61429;52.086;5.240;2022-12-18T07:33:00;20.9;;;16.3;;
50651;SDS011;61429;52.086;5.240;2022-12-18T07:34:36;21.1;;;15.4;;
50651;SDS011;61429;52.086;5.240;2022-12-18T07:37:50;20.6;;;15.9;;
50651;SDS011;61429;52.086;5.240;2022-12-18T07:39:26;22.0;;;16.5;;
50651;SDS011;61429;52.086;5.240;2022-12-18T07:41:03;19.91;;;16.5;;
50651;SDS011;61429;52.086;5.240;2022-12-18T07:42:40;22.4;;;16.7;;
50651;SDS011;61429;52.086;5.240;2022-12-18T07:45:54;19.7;;;15.6;;
50651;SDS011;61429;52.086;5.240;2022-12-18T07:47:33;20.8;;;16.4;;
50651;SDS011;61429;52.086;5.240;2022-12-18T07:49:10;20.2;;;15.7;;
50651;SDS011;61429;52.086;5.240;2022-12-18T07:52:22;20.2;;;16.2;;
50651;SDS011;61429;52.086;5.240;2022-12-18T07:53:59;21.2;;;16.5;;
50651;SDS011;61429;52.086;5.240;2022-12-18T07:55:35;19.8;;;15.6;;
50651;SDS011;61429;52.086;5.240;2022-12-18T07:58:48;22.0;;;16.8;;
50651;SDS011;61429;52.086;5.240;2022-12-18T08:00:24;22.1;;;16.4;;
50651;SDS011;61429;52.086;5.240;2022-12-18T08:02:00;23.3;;;16.8;;
50651;SDS011;61429;52.086;5.240;2022-12-18T08:03:37;22.2;;;16.61;;
50651;SDS011;61429;52.086;5.240;2022-12-18T08:06:51;21.0;;;15.9;;
50651;SDS011;61429;52.086;5.240;2022-12-18T08:08:27;23.2;;;16.61;;
50651;SDS011;61429;52.086;5.240;2022-12-18T08:10:04;23.1;;;17.11;;
50651;SDS011;61429;52.086;5.240;2022-12-18T08:13:19;20.7;;;15.9;;
50651;SDS011;61429;52.086;5.240;2022-12-18T08:14:54;23.7;;;16.2;;
50651;SDS011;61429;52.086;5.240;2022-12-18T08:16:31;23.7;;;16.2;;
50651;SDS011;61429;52.086;5.240;2022-12-18T08:19:43;21.2;;;15.0;;
50651;SDS011;61429;52.086;5.240;2022-12-18T08:21:20;22.0;;;15.3;;
50651;SDS011;61429;52.086;5.240;2022-12-18T08:24:34;19.0;;;14.9;;
50651;SDS011;61429;52.086;5.240;2022-12-18T08:27:47;21.4;;;15.2;;
50651;SDS011;61429;52.086;5.240;2022-12-18T08:29:24;20.7;;;16.11;;
50651;SDS011;61429;52.086;5.240;2022-12-18T08:31:00;19.61;;;15.2;;
50651;SDS011;61429;52.086;5.240;2022-12-18T08:34:11;19.2;;;15.0;;
50651;SDS011;61429;52.086;5.240;2022-12-18T08:35:48;18.41;;;14.2;;
50651;SDS011;61429;52.086;5.240;2022-12-18T08:37:24;18.8;;;14.2;;
50651;SDS011;61429;52.086;5.240;2022-12-18T08:40:37;19.0;;;14.7;;
50651;SDS011;61429;52.086;5.240;2022-12-18T08:42:12;19.3;;;14.6;;
50651;SDS011;61429;52.086;5.240;2022-12-18T08:43:48;17.8;;;14.4;;
50651;SDS011;61429;52.086;5.240;2022-12-18T08:45:25;19.0;;;15.4;;
50651;SDS011;61429;52.086;5.240;2022-12-18T08:48:37;20.5;;;14.7;;
50651;SDS011;61429;52.086;5.240;2022-12-18T08:50:14;19.11;;;15.2;;
50651;SDS011;61429;52.086;5.240;2022-12-18T08:51:53;17.3;;;13.9;;
50651;SDS011;61429;52.086;5.240;2022-12-18T08:55:07;18.5;;;14.9;;
50651;SDS011;61429;52.086;5.240;2022-12-18T08:56:44;18.0;;;14.4;;
50651;SDS011;61429;52.086;5.240;2022-12-18T08:58:21;18.3;;;14.2;;
50651;SDS011;61429;52.086;5.240;2022-12-18T09:01:33;17.5;;;14.2;;
50651;SDS011;61429;52.086;5.240;2022-12-18T09:03:10;16.2;;;13.7;;
50651;SDS011;61429;52.086;5.240;2022-12-18T09:04:48;17.8;;;15.2;;
50651;SDS011;61429;52.086;5.240;2022-12-18T09:06:24;19.8;;;15.3;;
50651;SDS011;61429;52.086;5.240;2022-12-18T09:09:36;19.11;;;14.4;;
50651;SDS011;61429;52.086;5.240;2022-12-18T09:11:13;19.2;;;15.6;;
50651;SDS011;61429;52.086;5.240;2022-12-18T09:12:54;18.8;;;14.9;;
50651;SDS011;61429;52.086;5.240;2022-12-18T09:16:06;18.0;;;14.5;;
50651;SDS011;61429;52.086;5.240;2022-12-18T09:17:43;18.0;;;14.6;;
50651;SDS011;61429;52.086;5.240;2022-12-18T09:19:19;20.0;;;15.0;;
50651;SDS011;61429;52.086;5.240;2022-12-18T09:22:31;20.0;;;14.5;;
50651;SDS011;61429;52.086;5.240;2022-12-18T09:24:08;22.0;;;15.1;;
50651;SDS011;61429;52.086;5.240;2022-12-18T09:25:48;19.61;;;15.0;;
50651;SDS011;61429;52.086;5.240;2022-12-18T09:27:25;17.11;;;14.5;;
50651;SDS011;61429;52.086;5.240;2022-12-18T09:30:38;20.2;;;14.9;;
50651;SDS011;61429;52.086;5.240;2022-12-18T09:32:16;19.0;;;15.0;;
50651;SDS011;61429;52.086;5.240;2022-12-18T09:33:54;17.61;;;14.7;;
50651;SDS011;61429;52.086;5.240;2022-12-18T09:37:07;19.3;;;15.4;;
50651;SDS011;61429;52.086;5.240;2022-12-18T09:38:43;18.3;;;15.0;;
50651;SDS011;61429;52.086;5.240;2022-12-18T09:40:21;19.7;;;14.9;;
50651;SDS011;61429;52.086;5.240;2022-12-18T09:42:01;18.41;;;15.0;;
50651;SDS011;61429;52.086;5.240;2022-12-18T09:45:21;20.7;;;15.8;;
50651;SDS011;61429;52.086;5.240;2022-12-18T09:47:01;19.2;;;14.4;;
50651;SDS011;61429;52.086;5.240;2022-12-18T09:48:46;19.11;;;14.6;;
50651;SDS011;61429;52.086;5.240;2022-12-18T09:50:27;18.7;;;14.4;;
50651;SDS011;61429;52.086;5.240;2022-12-18T09:53:52;18.91;;;14.9;;
50651;SDS011;61429;52.086;5.240;2022-12-18T09:55:33;19.0;;;14.8;;
50651;SDS011;61429;52.086;5.240;2022-12-18T09:57:14;18.8;;;14.8;;
50651;SDS011;61429;52.086;5.240;2022-12-18T10:02:14;16.7;;;14.1;;
50651;SDS011;61429;52.086;5.240;2022-12-18T10:03:52;17.7;;;14.6;;
50651;SDS011;61429;52.086;5.240;2022-12-18T10:05:33;19.7;;;15.7;;
50651;SDS011;61429;52.086;5.240;2022-12-18T10:07:24;18.41;;;14.9;;
50651;SDS011;61429;52.086;5.240;2022-12-18T10:09:12;17.8;;;14.6;;
50651;SDS011;61429;52.086;5.240;2022-12-18T10:12:46;18.2;;;14.7;;
50651;SDS011;61429;52.086;5.240;2022-12-18T10:14:34;19.0;;;14.8;;
50651;SDS011;61429;52.086;5.240;2022-12-18T10:16:17;18.11;;;14.4;;
50651;SDS011;61429;52.086;5.240;2022-12-18T10:18:03;17.8;;;14.3;;
50651;SDS011;61429;52.086;5.240;2022-12-18T10:19:58;17.7;;;14.0;;
50651;SDS011;61429;52.086;5.240;2022-12-18T10:23:25;17.61;;;14.0;;
50651;SDS011;61429;52.086;5.240;2022-12-18T10:25:14;17.3;;;14.3;;
50651;SDS011;61429;52.086;5.240;2022-12-18T10:26:56;17.91;;;14.6;;
50651;SDS011;61429;52.086;5.240;2022-12-18T10:28:45;18.91;;;14.3;;
50651;SDS011;61429;52.086;5.240;2022-12-18T10:30:23;17.5;;;13.8;;
50651;SDS011;61429;52.086;5.240;2022-12-18T10:33:38;18.61;;;14.6;;
50651;SDS011;61429;52.086;5.240;2022-12-18T10:35:16;17.91;;;14.2;;
50651;SDS011;61429;52.086;5.240;2022-12-18T10:36:55;17.41;;;14.1;;
50651;SDS011;61429;52.086;5.240;2022-12-18T10:38:33;17.41;;;14.1;;
50651;SDS011;61429;52.086;5.240;2022-12-18T10:41:49;18.11;;;14.1;;
50651;SDS011;61429;52.086;5.240;2022-12-18T10:43:26;20.0;;;15.1;;
50651;SDS011;61429;52.086;5.240;2022-12-18T10:45:08;18.5;;;14.7;;
50651;SDS011;61429;52.086;5.240;2022-12-18T10:46:50;18.2;;;14.6;;
50651;SDS011;61429;52.086;5.240;2022-12-18T10:50:11;17.0;;;13.9;;
50651;SDS011;61429;52.086;5.240;2022-12-18T10:52:04;17.7;;;14.3;;
50651;SDS011;61429;52.086;5.240;2022-12-18T10:53:44;16.61;;;13.7;;
50651;SDS011;61429;52.086;5.240;2022-12-18T10:55:31;17.41;;;14.2;;
50651;SDS011;61429;52.086;5.240;2022-12-18T10:59:07;18.0;;;14.0;;
50651;SDS011;61429;52.086;5.240;2022-12-18T11:00:49;18.3;;;15.4;;
50651;SDS011;61429;52.086;5.240;2022-12-18T11:02:39;17.5;;;13.7;;
50651;SDS011;61429;52.086;5.240;2022-12-18T11:04:16;20.3;;;15.2;;
50651;SDS011;61429;52.086;5.240;2022-12-18T11:06:01;17.5;;;14.2;;
50651;SDS011;61429;52.086;5.240;2022-12-18T11:09:24;17.0;;;13.5;;
50651;SDS011;61429;52.086;5.240;2022-12-18T11:11:02;18.91;;;14.2;;
50651;SDS011;61429;52.086;5.240;2022-12-18T11:12:43;16.3;;;13.6;;
50651;SDS011;61429;52.086;5.240;2022-12-18T11:14:21;17.0;;;13.6;;
50651;SDS011;61429;52.086;5.240;2022-12-18T11:17:36;16.7;;;13.8;;
50651;SDS011;61429;52.086;5.240;2022-12-18T11:19:17;16.7;;;13.8;;
50651;SDS011;61429;52.086;5.240;2022-12-18T11:21:04;17.91;;;14.2;;
50651;SDS011;61429;52.086;5.240;2022-12-18T11:22:44;18.61;;;14.2;;
50651;SDS011;61429;52.086;5.240;2022-12-18T11:24:32;16.7;;;13.8;;
50651;SDS011;61429;52.086;5.240;2022-12-18T11:27:51;18.0;;;13.9;;
50651;SDS011;61429;52.086;5.240;2022-12-18T11:29:32;17.2;;;13.8;;
50651;SDS011;61429;52.086;5.240;2022-12-18T11:31:17;19.41;;;14.9;;
50651;SDS011;61429;52.086;5.240;2022-12-18T11:33:03;18.0;;;13.8;;
50651;SDS011;61429;52.086;5.240;2022-12-18T11:36:23;17.5;;;13.6;;
50651;SDS011;61429;52.086;5.240;2022-12-18T11:38:02;18.2;;;14.3;;
50651;SDS011;61429;52.086;5.240;2022-12-18T11:39:49;18.7;;;14.3;;
50651;SDS011;61429;52.086;5.240;2022-12-18T11:41:32;16.0;;;13.0;;
50651;SDS011;61429;52.086;5.240;2022-12-18T11:43:17;17.61;;;13.5;;
50651;SDS011;61429;52.086;5.240;2022-12-18T11:46:59;18.11;;;14.0;;
50651;SDS011;61429;52.086;5.240;2022-12-18T11:48:41;17.2;;;13.5;;
50651;SDS011;61429;52.086;5.240;2022-12-18T11:50:24;16.8;;;14.1;;
50651;SDS011;61429;52.086;5.240;2022-12-18T11:52:04;15.7;;;14.0;;
50651;SDS011;61429;52.086;5.240;2022-12-18T11:53:51;16.8;;;13.5;;
50651;SDS011;61429;52.086;5.240;2022-12-18T11:57:27;18.3;;;13.8;;
50651;SDS011;61429;52.086;5.240;2022-12-18T11:59:13;16.9;;;13.7;;
50651;SDS011;61429;52.086;5.240;2022-12-18T12:01:02;16.7;;;13.4;;
50651;SDS011;61429;52.086;5.240;2022-12-18T12:03:01;17.5;;;13.5;;
50651;SDS011;61429;52.086;5.240;2022-12-18T12:06:37;19.41;;;14.7;;
50651;SDS011;61429;52.086;5.240;2022-12-18T12:08:24;16.0;;;13.5;;
50651;SDS011;61429;52.086;5.240;2022-12-18T12:12:10;18.3;;;14.4;;
50651;SDS011;61429;52.086;5.240;2022-12-18T12:14:07;17.2;;;13.6;;
50651;SDS011;61429;52.086;5.240;2022-12-18T12:16:12;17.91;;;14.2;;
50651;SDS011;61429;52.086;5.240;2022-12-18T12:17:55;17.8;;;13.9;;
50651;SDS011;61429;52.086;5.240;2022-12-18T12:19:44;18.11;;;14.4;;
50651;SDS011;61429;52.086;5.240;2022-12-18T12:21:28;18.11;;;14.1;;
50651;SDS011;61429;52.086;5.240;2022-12-18T12:23:18;17.3;;;13.7;;
50651;SDS011;61429;52.086;5.240;2022-12-18T12:27:00;18.91;;;14.0;;
50651;SDS011;61429;52.086;5.240;2022-12-18T12:28:51;18.2;;;14.1;;
50651;SDS011;61429;52.086;5.240;2022-12-18T12:30:44;19.11;;;14.3;;
50651;SDS011;61429;52.086;5.240;2022-12-18T12:32:36;18.2;;;14.2;;
50651;SDS011;61429;52.086;5.240;2022-12-18T12:34:26;18.91;;;13.8;;
50651;SDS011;61429;52.086;5.240;2022-12-18T12:36:12;17.91;;;14.1;;
50651;SDS011;61429;52.086;5.240;2022-12-18T12:38:02;16.7;;;13.9;;
50651;SDS011;61429;52.086;5.240;2022-12-18T12:39:45;19.3;;;13.7;;
50651;SDS011;61429;52.086;5.240;2022-12-18T12:43:15;19.3;;;13.7;;
50651;SDS011;61429;52.086;5.240;2022-12-18T12:44:58;18.5;;;14.3;;
50651;SDS011;61429;52.086;5.240;2022-12-18T12:46:41;18.41;;;14.8;;
50651;SDS011;61429;52.086;5.240;2022-12-18T12:48:22;19.7;;;14.8;;
50651;SDS011;61429;52.086;5.240;2022-12-18T12:50:12;18.5;;;14.6;;
50651;SDS011;61429;52.086;5.240;2022-12-18T12:53:37;18.91;;;15.2;;
50651;SDS011;61429;52.086;5.240;2022-12-18T12:55:16;20.7;;;15.3;;
50651;SDS011;61429;52.086;5.240;2022-12-18T12:56:57;20.7;;;15.3;;
50651;SDS011;61429;52.086;5.240;2022-12-18T12:58:42;17.7;;;14.9;;
50651;SDS011;61429;52.086;5.240;2022-12-18T13:02:17;20.3;;;15.2;;
50651;SDS011;61429;52.086;5.240;2022-12-18T13:04:01;20.0;;;16.0;;
50651;SDS011;61429;52.086;5.240;2022-12-18T13:05:48;21.5;;;16.3;;
50651;SDS011;61429;52.086;5.240;2022-12-18T13:07:32;23.7;;;16.5;;
50651;SDS011;61429;52.086;5.240;2022-12-18T13:09:15;17.8;;;14.7;;
50651;SDS011;61429;52.086;5.240;2022-12-18T13:12:28;17.3;;;14.0;;
50651;SDS011;61429;52.086;5.240;2022-12-18T13:14:12;18.41;;;14.6;;
50651;SDS011;61429;52.086;5.240;2022-12-18T13:16:03;19.0;;;15.0;;
50651;SDS011;61429;52.086;5.240;2022-12-18T13:17:42;19.11;;;14.7;;
50651;SDS011;61429;52.086;5.240;2022-12-18T13:21:02;18.11;;;14.7;;
50651;SDS011;61429;52.086;5.240;2022-12-18T13:22:57;18.91;;;14.0;;
50651;SDS011;61429;52.086;5.240;2022-12-18T13:24:33;18.61;;;14.1;;
50651;SDS011;61429;52.086;5.240;2022-12-18T13:26:41;17.8;;;14.4;;
50651;SDS011;61429;52.086;5.240;2022-12-18T13:28:20;19.91;;;15.4;;
50651;SDS011;61429;52.086;5.240;2022-12-18T13:31:00;20.5;;;15.8;;
50651;SDS011;61429;52.086;5.240;2022-12-18T13:32:41;20.5;;;16.2;;
50651;SDS011;61429;52.086;5.240;2022-12-18T13:34:18;19.7;;;15.7;;
50651;SDS011;61429;52.086;5.240;2022-12-18T13:37:50;19.0;;;15.2;;
50651;SDS011;61429;52.086;5.240;2022-12-18T13:39:31;19.8;;;15.7;;
50651;SDS011;61429;52.086;5.240;2022-12-18T13:41:21;19.61;;;15.4;;
50651;SDS011;61429;52.086;5.240;2022-12-18T13:43:13;19.7;;;14.8;;
50651;SDS011;61429;52.086;5.240;2022-12-18T13:44:59;19.61;;;15.3;;
50651;SDS011;61429;52.086;5.240;2022-12-18T13:48:21;19.8;;;15.6;;
50651;SDS011;61429;52.086;5.240;2022-12-18T13:50:00;20.11;;;15.9;;
50651;SDS011;61429;52.086;5.240;2022-12-18T13:51:46;19.2;;;15.3;;
50651;SDS011;61429;52.086;5.240;2022-12-18T13:53:25;19.0;;;15.7;;
50651;SDS011;61429;52.086;5.240;2022-12-18T13:55:04;19.91;;;15.6;;
50651;SDS011;61429;52.086;5.240;2022-12-18T13:58:26;18.61;;;15.2;;
50651;SDS011;61429;52.086;5.240;2022-12-18T14:00:16;19.11;;;15.3;;
50651;SDS011;61429;52.086;5.240;2022-12-18T14:02:07;22.1;;;16.2;;
50651;SDS011;61429;52.086;5.240;2022-12-18T14:03:49;18.11;;;14.7;;
50651;SDS011;61429;52.086;5.240;2022-12-18T14:05:44;20.8;;;15.3;;
50651;SDS011;61429;52.086;5.240;2022-12-18T14:09:01;19.61;;;15.4;;
50651;SDS011;61429;52.086;5.240;2022-12-18T14:10:39;19.3;;;14.8;;
50651;SDS011;61429;52.086;5.240;2022-12-18T14:12:16;18.7;;;15.1;;
50651;SDS011;61429;52.086;5.240;2022-12-18T14:13:58;19.41;;;16.0;;
50651;SDS011;61429;52.086;5.240;2022-12-18T14:17:16;19.91;;;15.4;;
50651;SDS011;61429;52.086;5.240;2022-12-18T14:18:53;22.8;;;16.4;;
50651;SDS011;61429;52.086;5.240;2022-12-18T14:20:32;21.0;;;15.6;;
50651;SDS011;61429;52.086;5.240;2022-12-18T14:24:12;20.8;;;15.1;;
50651;SDS011;61429;52.086;5.240;2022-12-18T14:25:51;20.41;;;16.11;;
50651;SDS011;61429;52.086;5.240;2022-12-18T14:27:27;20.9;;;16.0;;
50651;SDS011;61429;52.086;5.240;2022-12-18T14:29:17;18.8;;;14.7;;
50651;SDS011;61429;52.086;5.240;2022-12-18T14:30:56;21.6;;;16.2;;
50651;SDS011;61429;52.086;5.240;2022-12-18T14:34:14;21.9;;;16.61;;
50651;SDS011;61429;52.086;5.240;2022-12-18T14:35:52;19.91;;;15.4;;
50651;SDS011;61429;52.086;5.240;2022-12-18T14:37:32;19.3;;;15.5;;
50651;SDS011;61429;52.086;5.240;2022-12-18T14:39:13;20.5;;;15.8;;
50651;SDS011;61429;52.086;5.240;2022-12-18T14:42:36;19.3;;;15.5;;
50651;SDS011;61429;52.086;5.240;2022-12-18T14:44:12;21.4;;;16.9;;
50651;SDS011;61429;52.086;5.240;2022-12-18T14:45:49;19.61;;;15.5;;
50651;SDS011;61429;52.086;5.240;2022-12-18T14:47:27;19.91;;;15.9;;
50651;SDS011;61429;52.086;5.240;2022-12-18T14:50:55;20.0;;;16.11;;
50651;SDS011;61429;52.086;5.240;2022-12-18T14:52:34;19.0;;;15.3;;
50651;SDS011;61429;52.086;5.240;2022-12-18T14:54:14;18.91;;;15.5;;
50651;SDS011;61429;52.086;5.240;2022-12-18T14:55:52;19.91;;;15.4;;
50651;SDS011;61429;52.086;5.240;2022-12-18T14:59:13;20.0;;;15.9;;
50651;SDS011;61429;52.086;5.240;2022-12-18T15:00:51;18.8;;;15.2;;
50651;SDS011;61429;52.086;5.240;2022-12-18T15:02:27;19.3;;;15.9;;
50651;SDS011;61429;52.086;5.240;2022-12-18T15:04:05;20.11;;;15.7;;
50651;SDS011;61429;52.086;5.240;2022-12-18T15:07:52;20.8;;;16.4;;
50651;SDS011;61429;52.086;5.240;2022-12-18T15:09:30;19.61;;;15.8;;
50651;SDS011;61429;52.086;5.240;2022-12-18T15:11:23;20.3;;;16.2;;
50651;SDS011;61429;52.086;5.240;2022-12-18T15:13:07;21.9;;;16.11;;
50651;SDS011;61429;52.086;5.240;2022-12-18T15:14:59;19.5;;;15.7;;
50651;SDS011;61429;52.086;5.240;2022-12-18T15:18:11;21.8;;;16.61;;
50651;SDS011;61429;52.086;5.240;2022-12-18T15:19:51;22.4;;;16.2;;
50651;SDS011;61429;52.086;5.240;2022-12-18T15:21:33;17.8;;;14.3;;
50651;SDS011;61429;52.086;5.240;2022-12-18T15:23:12;20.3;;;15.7;;
50651;SDS011;61429;52.086;5.240;2022-12-18T15:26:36;19.7;;;16.4;;
50651;SDS011;61429;52.086;5.240;2022-12-18T15:28:16;21.3;;;16.8;;
50651;SDS011;61429;52.086;5.240;2022-12-18T15:30:16;21.7;;;16.7;;
50651;SDS011;61429;52.086;5.240;2022-12-18T15:32:05;21.0;;;16.8;;
50651;SDS011;61429;52.086;5.240;2022-12-18T15:34:12;20.7;;;16.11;;
50651;SDS011;61429;52.086;5.240;2022-12-18T15:35:59;21.2;;;16.7;;
50651;SDS011;61429;52.086;5.240;2022-12-18T15:37:38;20.41;;;16.3;;
50651;SDS011;61429;52.086;5.240;2022-12-18T15:40:51;20.8;;;16.11;;
50651;SDS011;61429;52.086;5.240;2022-12-18T15:42:28;22.4;;;17.3;;
50651;SDS011;61429;52.086;5.240;2022-12-18T15:44:15;20.3;;;16.8;;
50651;SDS011;61429;52.086;5.240;2022-12-18T15:45:58;22.5;;;17.0;;
50651;SDS011;61429;52.086;5.240;2022-12-18T15:49:11;20.7;;;17.0;;
50651;SDS011;61429;52.086;5.240;2022-12-18T15:50:47;22.4;;;17.3;;
50651;SDS011;61429;52.086;5.240;2022-12-18T15:52:24;22.4;;;16.61;;
50651;SDS011;61429;52.086;5.240;2022-12-18T15:55:40;23.4;;;18.41;;
50651;SDS011;61429;52.086;5.240;2022-12-18T15:57:16;21.7;;;17.11;;
50651;SDS011;61429;52.086;5.240;2022-12-18T15:58:53;22.5;;;17.61;;
50651;SDS011;61429;52.086;5.240;2022-12-18T16:02:07;21.6;;;16.7;;
50651;SDS011;61429;52.086;5.240;2022-12-18T16:03:52;21.7;;;16.7;;
50651;SDS011;61429;52.086;5.240;2022-12-18T16:05:29;20.2;;;16.8;;
50651;SDS011;61429;52.086;5.240;2022-12-18T16:07:07;22.1;;;17.41;;
50651;SDS011;61429;52.086;5.240;2022-12-18T16:10:19;22.3;;;18.0;;
50651;SDS011;61429;52.086;5.240;2022-12-18T16:11:56;21.7;;;16.8;;
50651;SDS011;61429;52.086;5.240;2022-12-18T16:13:35;20.6;;;16.5;;
50651;SDS011;61429;52.086;5.240;2022-12-18T16:15:13;23.8;;;18.41;;
50651;SDS011;61429;52.086;5.240;2022-12-18T16:18:29;23.8;;;18.41;;
50651;SDS011;61429;52.086;5.240;2022-12-18T16:20:06;21.6;;;17.41;;
50651;SDS011;61429;52.086;5.240;2022-12-18T16:21:48;23.0;;;17.11;;
50651;SDS011;61429;52.086;5.240;2022-12-18T16:25:02;24.8;;;17.91;;
50651;SDS011;61429;52.086;5.240;2022-12-18T16:26:38;22.0;;;18.0;;
50651;SDS011;61429;52.086;5.240;2022-12-18T16:28:14;22.6;;;17.11;;
50651;SDS011;61429;52.086;5.240;2022-12-18T16:29:50;21.0;;;16.9;;
50651;SDS011;61429;52.086;5.240;2022-12-18T16:33:03;22.4;;;18.0;;
50651;SDS011;61429;52.086;5.240;2022-12-18T16:34:39;23.0;;;17.8;;
50651;SDS011;61429;52.086;5.240;2022-12-18T16:36:16;23.3;;;17.61;;
50651;SDS011;61429;52.086;5.240;2022-12-18T16:39:28;23.8;;;17.91;;
50651;SDS011;61429;52.086;5.240;2022-12-18T16:41:06;22.9;;;18.0;;
50651;SDS011;61429;52.086;5.240;2022-12-18T16:42:54;22.5;;;17.8;;
50651;SDS011;61429;52.086;5.240;2022-12-18T16:44:30;21.8;;;18.11;;
50651;SDS011;61429;52.086;5.240;2022-12-18T16:47:42;24.1;;;18.5;;
50651;SDS011;61429;52.086;5.240;2022-12-18T16:49:19;23.0;;;18.11;;
50651;SDS011;61429;52.086;5.240;2022-12-18T16:50:59;23.8;;;17.7;;
50651;SDS011;61429;52.086;5.240;2022-12-18T16:54:14;25.4;;;18.61;;
50651;SDS011;61429;52.086;5.240;2022-12-18T16:55:53;24.9;;;18.7;;
50651;SDS011;61429;52.086;5.240;2022-12-18T16:57:30;25.1;;;18.91;;
50651;SDS011;61429;52.086;5.240;2022-12-18T17:00:42;23.7;;;18.2;;
50651;SDS011;61429;52.086;5.240;2022-12-18T17:02:19;25.0;;;18.41;;
50651;SDS011;61429;52.086;5.240;2022-12-18T17:03:57;27.1;;;19.7;;
50651;SDS011;61429;52.086;5.240;2022-12-18T17:05:36;26.0;;;19.41;;
50651;SDS011;61429;52.086;5.240;2022-12-18T17:08:54;24.6;;;18.2;;
50651;SDS011;61429;52.086;5.240;2022-12-18T17:10:33;22.5;;;18.11;;
50651;SDS011;61429;52.086;5.240;2022-12-18T17:13:47;24.8;;;18.41;;
50651;SDS011;61429;52.086;5.240;2022-12-18T17:17:00;24.8;;;18.61;;
50651;SDS011;61429;52.086;5.240;2022-12-18T17:20:13;25.5;;;19.0;;
50651;SDS011;61429;52.086;5.240;2022-12-18T17:21:49;24.1;;;18.5;;
50651;SDS011;61429;52.086;5.240;2022-12-18T17:23:26;24.2;;;18.5;;
50651;SDS011;61429;52.086;5.240;2022-12-18T17:25:03;23.7;;;18.7;;
50651;SDS011;61429;52.086;5.240;2022-12-18T17:26:41;25.6;;;19.8;;
50651;SDS011;61429;52.086;5.240;2022-12-18T17:29:53;23.6;;;18.7;;
50651;SDS011;61429;52.086;5.240;2022-12-18T17:31:30;25.2;;;18.7;;
50651;SDS011;61429;52.086;5.240;2022-12-18T17:33:06;26.2;;;19.7;;
50651;SDS011;61429;52.086;5.240;2022-12-18T17:34:43;25.8;;;18.8;;
50651;SDS011;61429;52.086;5.240;2022-12-18T17:37:56;23.8;;;18.5;;
50651;SDS011;61429;52.086;5.240;2022-12-18T17:39:32;25.3;;;19.41;;
50651;SDS011;61429;52.086;5.240;2022-12-18T17:41:09;26.2;;;19.0;;
50651;SDS011;61429;52.086;5.240;2022-12-18T17:44:23;24.7;;;19.3;;
50651;SDS011;61429;52.086;5.240;2022-12-18T17:46:00;25.1;;;19.0;;
50651;SDS011;61429;52.086;5.240;2022-12-18T17:47:36;24.6;;;19.41;;
50651;SDS011;61429;52.086;5.240;2022-12-18T17:50:49;25.3;;;19.7;;
50651;SDS011;61429;52.086;5.240;2022-12-18T17:52:26;25.6;;;19.41;;
50651;SDS011;61429;52.086;5.240;2022-12-18T17:54:02;26.0;;;19.41;;
50651;SDS011;61429;52.086;5.240;2022-12-18T17:55:39;26.9;;;20.3;;
50651;SDS011;61429;52.086;5.240;2022-12-18T17:58:51;26.0;;;19.2;;
50651;SDS011;61429;52.086;5.240;2022-12-18T18:00:28;25.2;;;19.2;;
50651;SDS011;61429;52.086;5.240;2022-12-18T18:02:04;24.9;;;19.0;;
50651;SDS011;61429;52.086;5.240;2022-12-18T18:05:19;24.6;;;19.8;;
50651;SDS011;61429;52.086;5.240;2022-12-18T18:06:55;25.9;;;19.5;;
50651;SDS011;61429;52.086;5.240;2022-12-18T18:08:32;25.6;;;19.11;;
50651;SDS011;61429;52.086;5.240;2022-12-18T18:11:46;24.8;;;19.3;;
50651;SDS011;61429;52.086;5.240;2022-12-18T18:13:23;24.9;;;19.7;;
50651;SDS011;61429;52.086;5.240;2022-12-18T18:15:00;25.8;;;19.5;;
50651;SDS011;61429;52.086;5.240;2022-12-18T18:16:37;24.2;;;19.3;;
50651;SDS011;61429;52.086;5.240;2022-12-18T18:19:53;24.9;;;19.61;;
50651;SDS011;61429;52.086;5.240;2022-12-18T18:21:29;27.5;;;20.5;;
50651;SDS011;61429;52.086;5.240;2022-12-18T18:23:06;28.2;;;21.1;;
50651;SDS011;61429;52.086;5.240;2022-12-18T18:26:19;28.6;;;21.3;;
50651;SDS011;61429;52.086;5.240;2022-12-18T18:27:56;25.8;;;19.8;;
50651;SDS011;61429;52.086;5.240;2022-12-18T18:29:32;26.9;;;19.7;;
50651;SDS011;61429;52.086;5.240;2022-12-18T18:32:46;25.3;;;19.41;;
50651;SDS011;61429;52.086;5.240;2022-12-18T18:34:24;28.2;;;20.0;;
50651;SDS011;61429;52.086;5.240;2022-12-18T18:36:02;26.2;;;20.5;;
50651;SDS011;61429;52.086;5.240;2022-12-18T18:37:39;25.3;;;19.41;;
50651;SDS011;61429;52.086;5.240;2022-12-18T18:40:56;27.2;;;20.3;;
50651;SDS011;61429;52.086;5.240;2022-12-18T18:44:10;25.1;;;19.2;;
50651;SDS011;61429;52.086;5.240;2022-12-18T18:47:22;27.0;;;19.8;;
50651;SDS011;61429;52.086;5.240;2022-12-18T18:48:58;26.1;;;20.2;;
50651;SDS011;61429;52.086;5.240;2022-12-18T18:50:35;27.9;;;19.91;;
50651;SDS011;61429;52.086;5.240;2022-12-18T18:52:11;28.2;;;20.2;;
50651;SDS011;61429;52.086;5.240;2022-12-18T18:55:26;26.9;;;19.5;;
50651;SDS011;61429;52.086;5.240;2022-12-18T18:57:03;25.7;;;18.61;;
50651;SDS011;61429;52.086;5.240;2022-12-18T18:58:38;27.1;;;19.2;;
50651;SDS011;61429;52.086;5.240;2022-12-18T19:01:52;25.4;;;19.0;;
50651;SDS011;61429;52.086;5.240;2022-12-18T19:03:28;28.1;;;19.7;;